Time;durP1;ratioP1;P1;durP2;ratioP2;P2;SDS_P1;SDS_P2;PMS_P1;PMS_P2;Temp;Humidity;BMP_temperature;BMP_pressure;BME280_temperature;BME280_humidity;BME280_pressure;Samples;Min_cycle;Max_cycle;Signal;HPM_P1;HPM_P2
2023/06/01 00:00:58;;;;;;;2.60;2.00;;;;;;;16.87;100.00;97906.69;1702373;75;686247;-69
2023/06/01 00:03:29;;;;;;;2.40;2.10;;;;;;;16.82;100.00;97911.75;1709483;75;684447;-73
2023/06/01 00:06:00;;;;;;;2.40;2.20;;;;;;;16.88;100.00;97914.47;1699194;75;937681;-73
2023/06/01 00:08:30;;;;;;;2.40;2.20;;;;;;;16.90;100.00;97911.94;1709221;75;673866;-68
2023/06/01 00:11:00;;;;;;;2.05;1.80;;;;;;;16.92;100.00;97914.19;1702081;75;693915;-71
2023/06/01 00:13:33;;;;;;;2.40;2.05;;;;;;;16.85;100.00;97909.97;1709437;75;679888;-70
2023/06/01 00:16:03;;;;;;;2.40;2.00;;;;;;;16.85;100.00;97898.16;1701859;75;728472;-72
2023/06/01 00:18:34;;;;;;;2.40;2.00;;;;;;;16.81;100.00;97910.25;1709720;75;675865;-70
2023/06/01 00:21:04;;;;;;;2.50;1.80;;;;;;;16.87;100.00;97904.66;1701390;75;740586;-68
2023/06/01 00:23:34;;;;;;;1.90;1.70;;;;;;;16.85;100.00;97906.44;1709557;75;679925;-70
2023/06/01 00:26:05;;;;;;;1.80;1.50;;;;;;;16.86;100.00;97908.72;1701806;75;750404;-70
2023/06/01 00:28:38;;;;;;;3.15;1.50;;;;;;;16.89;100.00;97904.91;1683758;75;2915158;-72
2023/06/01 00:31:08;;;;;;;2.40;2.10;;;;;;;16.82;100.00;97908.22;1687362;75;1911343;-71
2023/06/01 00:33:39;;;;;;;3.00;2.30;;;;;;;16.81;100.00;97901.19;1710563;75;672214;-69
2023/06/01 00:36:10;;;;;;;4.70;3.65;;;;;;;16.74;100.00;97904.47;1701440;75;741542;-73
2023/06/01 00:38:40;;;;;;;4.00;3.45;;;;;;;16.72;100.00;97905.00;1709874;75;673441;-73
2023/06/01 00:41:10;;;;;;;3.30;3.00;;;;;;;16.64;100.00;97904.00;1701197;75;750428;-70
2023/06/01 00:43:43;;;;;;;7.10;4.65;;;;;;;16.46;100.00;97905.38;1708590;75;824394;-67
2023/06/01 00:46:14;;;;;;;5.35;3.95;;;;;;;16.63;100.00;97899.00;1701535;75;751233;-71
2023/06/01 00:48:46;;;;;;;4.90;3.90;;;;;;;16.55;100.00;97907.84;1710277;75;685517;-70
2023/06/01 00:51:17;;;;;;;5.70;4.60;;;;;;;16.51;100.00;97903.84;1701033;75;740963;-72
2023/06/01 00:53:48;;;;;;;5.70;4.80;;;;;;;16.46;100.00;97905.38;1709182;75;691952;-73
2023/06/01 00:56:18;;;;;;;5.00;4.10;;;;;;;16.61;100.00;97902.28;1700748;75;737802;-70
2023/06/01 00:58:51;;;;;;;3.65;3.25;;;;;;;16.59;100.00;97900.00;1709351;75;672372;-71
2023/06/01 01:01:22;;;;;;;4.85;3.65;;;;;;;16.52;100.00;97902.56;1700615;75;742383;-71
2023/06/01 01:03:57;;;;;;;3.80;3.30;;;;;;;16.60;100.00;97909.09;1709869;75;677783;-69
2023/06/01 01:06:45;;;;;;;3.65;2.80;;;;;;;16.69;100.00;97902.47;1700937;75;754244;-67
2023/06/01 01:09:27;;;;;;;4.20;3.30;;;;;;;16.57;100.00;97899.03;1701510;75;706662;-72
2023/06/01 01:12:03;;;;;;;5.40;4.00;;;;;;;16.49;100.00;97896.06;1709746;75;677650;-69
2023/06/01 01:14:53;;;;;;;4.70;4.10;;;;;;;16.46;100.00;97899.84;1700423;75;753008;-74
2023/06/01 01:17:37;;;;;;;5.50;4.20;;;;;;;16.42;100.00;97899.34;1701986;75;672076;-70
2023/06/01 01:20:14;;;;;;;3.70;3.30;;;;;;;16.52;100.00;97897.78;1710047;75;670601;-72
2023/06/01 01:23:17;;;;;;;4.10;3.10;;;;;;;16.57;100.00;97897.03;1701161;75;737503;-68
2023/06/01 01:26:27;;;;;;;3.50;2.50;;;;;;;16.48;100.00;97905.63;1698545;75;924796;-73
2023/06/01 01:29:08;;;;;;;3.00;2.70;;;;;;;16.44;100.00;97896.84;1701287;75;721142;-72
2023/06/01 01:31:41;;;;;;;3.00;2.60;;;;;;;16.47;100.00;97895.06;1702272;75;681676;-71
2023/06/01 01:34:13;;;;;;;2.90;2.40;;;;;;;16.44;100.00;97899.59;1710052;75;689495;-71
2023/06/01 01:36:43;;;;;;;2.70;2.20;;;;;;;16.42;100.00;97891.06;1702286;75;719185;-70
2023/06/01 01:39:14;;;;;;;2.25;2.00;;;;;;;16.35;100.00;97892.34;1707210;75;930021;-70
2023/06/01 01:41:44;;;;;;;2.90;2.40;;;;;;;16.36;100.00;97882.06;1702495;75;670982;-73
2023/06/01 01:44:17;;;;;;;2.20;1.70;;;;;;;16.34;100.00;97885.34;1711446;75;676745;-68
2023/06/01 01:47:01;;;;;;;2.40;1.80;;;;;;;16.29;100.00;97879.84;1703432;75;681436;-69
2023/06/01 01:49:37;;;;;;;2.95;2.65;;;;;;;16.13;100.00;97871.09;1710562;75;684674;-67
2023/06/01 01:52:13;;;;;;;4.70;3.30;;;;;;;16.08;100.00;97877.41;1701125;75;753894;-72
2023/06/01 01:54:47;;;;;;;3.25;2.40;;;;;;;16.11;100.00;97870.09;1702622;75;703807;-68
2023/06/01 01:57:20;;;;;;;3.10;2.30;;;;;;;16.06;100.00;97873.66;1709795;75;681181;-71
2023/06/01 01:59:53;;;;;;;2.60;2.40;;;;;;;16.02;100.00;97876.69;1702053;75;694755;-69
2023/06/01 02:02:23;;;;;;;2.90;2.50;;;;;;;15.87;100.00;97878.97;1710132;75;677268;-72
2023/06/01 02:04:53;;;;;;;4.75;3.65;;;;;;;15.81;100.00;97867.22;1701653;75;761771;-73
2023/06/01 02:07:24;;;;;;;3.00;2.65;;;;;;;15.78;100.00;97874.50;1710064;75;675086;-72
2023/06/01 02:09:54;;;;;;;3.00;2.50;;;;;;;15.77;100.00;97872.97;1702148;75;680901;-74
2023/06/01 02:12:24;;;;;;;3.60;2.80;;;;;;;15.69;100.00;97863.69;1709850;75;697648;-70
2023/06/01 02:14:57;;;;;;;3.35;2.65;;;;;;;15.59;100.00;97863.22;1701621;75;690087;-70
2023/06/01 02:17:27;;;;;;;3.30;2.70;;;;;;;15.67;100.00;97861.44;1709721;75;676500;-71
2023/06/01 02:19:57;;;;;;;2.95;2.25;;;;;;;15.49;100.00;97862.72;1702495;75;681207;-69
2023/06/01 02:22:30;;;;;;;2.60;2.20;;;;;;;15.51;100.00;97857.47;1697832;75;1706305;-72
2023/06/01 02:25:04;;;;;;;2.90;2.30;;;;;;;15.44;100.00;97854.44;1702715;75;675864;-68
2023/06/01 02:27:35;;;;;;;2.70;2.40;;;;;;;15.40;100.00;97857.47;1710515;75;682850;-70
2023/06/01 02:30:09;;;;;;;2.20;2.00;;;;;;;15.34;100.00;97851.97;1701898;75;681537;-68
2023/06/01 02:32:40;;;;;;;2.30;2.10;;;;;;;15.28;100.00;97850.47;1709014;75;804239;-70
2023/06/01 02:35:11;;;;;;;2.45;2.15;;;;;;;15.26;100.00;97848.19;1701150;75;746220;-70
2023/06/01 02:37:41;;;;;;;3.30;2.30;;;;;;;15.20;100.00;97852.97;1639659;75;6603965;-74
2023/06/01 02:40:12;;;;;;;3.10;2.30;;;;;;;15.13;100.00;97856.25;1701007;75;758574;-74
2023/06/01 02:42:43;;;;;;;3.10;2.20;;;;;;;15.06;100.00;97846.47;1697597;75;1763290;-69
2023/06/01 02:45:16;;;;;;;2.40;1.95;;;;;;;15.05;100.00;97853.22;1701409;75;746766;-71
2023/06/01 02:47:46;;;;;;;2.80;2.10;;;;;;;15.08;100.00;97852.22;1707341;75;917135;-72
2023/06/01 02:50:17;;;;;;;3.05;2.05;;;;;;;14.95;100.00;97849.22;1701539;75;747906;-72
2023/06/01 02:52:47;;;;;;;2.80;2.00;;;;;;;14.89;100.00;97842.97;1706903;75;913118;-71
2023/06/01 02:55:17;;;;;;;2.70;1.90;;;;;;;14.80;100.00;97843.94;1701140;75;747386;-69
2023/06/01 02:57:47;;;;;;;3.20;2.25;;;;;;;14.81;100.00;97842.69;1710077;75;673578;-70
2023/06/01 03:00:21;;;;;;;2.40;1.90;;;;;;;14.75;100.00;97843.94;1698007;75;977972;-69
2023/06/01 03:02:52;;;;;;;2.10;1.90;;;;;;;14.66;100.00;97840.16;1710245;75;675292;-72
2023/06/01 03:05:23;;;;;;;2.40;1.80;;;;;;;14.65;100.00;97843.44;1701157;75;738931;-69
2023/06/01 03:07:54;;;;;;;2.80;2.20;;;;;;;14.62;100.00;97841.66;1709686;75;679247;-69
2023/06/01 03:10:24;;;;;;;4.85;2.75;;;;;;;14.61;100.00;97840.16;1701294;75;747780;-72
2023/06/01 03:12:54;;;;;;;2.70;2.10;;;;;;;14.54;100.00;97837.91;1709576;75;675627;-69
2023/06/01 03:15:27;;;;;;;3.80;2.15;;;;;;;14.57;100.00;97842.41;1701464;75;747356;-76
2023/06/01 03:17:57;;;;;;;2.10;1.90;;;;;;;14.48;100.00;97852.38;1710195;75;670124;-68
2023/06/01 03:20:28;;;;;;;2.35;1.85;;;;;;;14.45;100.00;97845.09;1701531;75;735944;-70
2023/06/01 03:22:58;;;;;;;2.20;2.00;;;;;;;14.38;100.00;97848.38;1709630;75;679167;-72
2023/06/01 03:25:28;;;;;;;3.15;2.40;;;;;;;14.30;100.00;97843.81;1700709;75;737285;-72
2023/06/01 03:27:58;;;;;;;2.80;2.45;;;;;;;14.32;100.00;97847.56;1709526;75;681401;-68
2023/06/01 03:30:31;;;;;;;3.35;2.80;;;;;;;14.26;100.00;97850.31;1701078;75;743737;-71
2023/06/01 03:33:01;;;;;;;3.40;2.50;;;;;;;14.23;100.00;97854.06;1708792;75;672657;-69
2023/06/01 03:35:32;;;;;;;4.90;3.35;;;;;;;14.14;100.00;97856.28;1700446;75;748477;-71
2023/06/01 03:38:02;;;;;;;3.90;3.10;;;;;;;14.17;100.00;97858.81;1709808;75;674552;-71
2023/06/01 03:40:32;;;;;;;2.90;2.50;;;;;;;14.23;100.00;97858.81;1698561;75;874670;-70
2023/06/01 03:43:03;;;;;;;2.40;2.20;;;;;;;14.24;100.00;97865.84;1710087;75;678706;-70
2023/06/01 03:45:36;;;;;;;3.20;2.60;;;;;;;14.23;100.00;97864.31;1700707;75;743488;-74
2023/06/01 03:48:08;;;;;;;2.40;2.10;;;;;;;14.14;100.00;97856.28;1710006;75;680062;-69
2023/06/01 03:50:38;;;;;;;2.55;2.30;;;;;;;14.07;100.00;97858.25;1700895;75;755563;-70
2023/06/01 03:53:08;;;;;;;3.25;2.40;;;;;;;14.10;100.00;97859.28;1709853;75;669620;-69
2023/06/01 03:55:38;;;;;;;2.85;2.45;;;;;;;14.13;100.00;97863.03;1700614;75;746544;-70
2023/06/01 03:58:08;;;;;;;3.00;2.25;;;;;;;14.17;100.00;97852.53;1709820;75;675902;-72
2023/06/01 04:00:42;;;;;;;2.60;2.00;;;;;;;14.22;100.00;97860.81;1697850;75;966677;-70
2023/06/01 04:03:14;;;;;;;4.40;2.00;;;;;;;14.15;100.00;97857.78;1710277;75;675948;-67
2023/06/01 04:05:49;;;;;;;2.30;2.10;;;;;;;14.20;100.00;97857.06;1684774;75;1955388;-70
2023/06/01 04:08:21;;;;;;;3.10;2.60;;;;;;;14.14;100.00;97856.28;1709467;75;676566;-72
2023/06/01 04:10:51;;;;;;;3.20;2.60;;;;;;;14.07;100.00;97854.75;1698932;75;866940;-71
2023/06/01 04:13:21;;;;;;;4.40;3.60;;;;;;;14.21;100.00;97853.78;1707414;75;890892;-73
2023/06/01 04:15:54;;;;;;;5.00;4.50;;;;;;;14.28;100.00;97845.06;1701222;75;747791;-74
2023/06/01 04:18:24;;;;;;;5.70;5.00;;;;;;;14.30;100.00;97846.56;1709565;75;671035;-68
2023/06/01 04:20:55;;;;;;;5.90;4.80;;;;;;;14.31;100.00;97846.09;1700621;75;753482;-72
2023/06/01 04:23:25;;;;;;;6.00;5.40;;;;;;;14.38;100.00;97842.84;1709766;75;693244;-68
2023/06/01 04:25:58;;;;;;;6.10;5.50;;;;;;;14.41;100.00;97843.84;1699972;75;770265;-71
2023/06/01 04:28:29;;;;;;;6.50;5.55;;;;;;;14.46;100.00;97843.88;1709424;75;674905;-69
2023/06/01 04:31:08;;;;;;;6.70;5.30;;;;;;;14.51;100.00;97842.38;1701093;75;752384;-68
2023/06/01 04:33:40;;;;;;;8.05;7.10;;;;;;;14.56;100.00;97835.41;1702144;75;688375;-74
2023/06/01 04:36:11;;;;;;;8.40;7.50;;;;;;;14.66;100.00;97834.66;1709545;75;682364;-69
2023/06/01 04:38:43;;;;;;;7.85;6.40;;;;;;;14.76;100.00;97837.16;1698766;75;953649;-69
2023/06/01 04:41:14;;;;;;;6.00;5.05;;;;;;;14.76;100.00;97832.41;1709924;75;670971;-72
2023/06/01 04:43:51;;;;;;;4.50;4.00;;;;;;;14.85;100.00;97837.69;1702519;75;678414;-67
2023/06/01 04:46:26;;;;;;;;;;;;;;;14.96;100.00;97838.94;1707065;75;970952;-71
2023/06/01 04:48:58;;;;;;;3.70;3.10;;;;;;;15.02;100.00;97843.19;1701771;75;676286;-70
2023/06/01 04:51:29;;;;;;;6.50;4.60;;;;;;;15.02;100.00;97845.22;1709577;75;681474;-69
2023/06/01 04:53:59;;;;;;;5.85;4.80;;;;;;;15.11;100.00;97844.97;1701929;75;686034;-70
2023/06/01 04:56:30;;;;;;;7.60;6.00;;;;;;;15.24;100.00;97839.66;1710070;75;677697;-72
2023/06/01 04:59:00;;;;;;;8.40;6.30;;;;;;;15.36;100.00;97837.66;1697696;75;964180;-70
2023/06/01 05:01:33;;;;;;;6.30;4.70;;;;;;;15.49;100.00;97850.91;1709670;75;677787;-71
2023/06/01 05:04:03;;;;;;;5.35;4.05;;;;;;;15.58;100.00;97845.13;1700891;75;750082;-71
2023/06/01 05:06:34;;;;;;;5.60;3.40;;;;;;;15.58;100.00;97839.63;1709934;75;673543;-70
2023/06/01 05:09:04;;;;;;;4.50;3.15;;;;;;;15.62;100.00;97847.66;1700699;75;737107;-71
2023/06/01 05:11:35;;;;;;;6.00;3.30;;;;;;;15.83;100.00;97840.59;1696370;75;1836791;-69
2023/06/01 05:14:06;;;;;;;3.65;3.00;;;;;;;15.87;100.00;97838.31;1701283;75;756845;-69
2023/06/01 05:16:39;;;;;;;8.85;6.20;;;;;;;15.76;100.00;97844.63;1709727;75;676203;-73
2023/06/01 05:19:12;;;;;;;10.60;6.90;;;;;;;15.79;100.00;97850.41;1700501;75;753377;-72
2023/06/01 05:21:45;;;;;;;10.30;7.50;;;;;;;15.82;100.00;97844.59;1710405;75;677960;-70
2023/06/01 05:24:17;;;;;;;13.70;7.05;;;;;;;15.86;100.00;97852.63;1700769;75;754985;-73
2023/06/01 05:26:47;;;;;;;12.80;7.40;;;;;;;15.99;100.00;97844.53;1710000;75;685724;-70
2023/06/01 05:29:17;;;;;;;10.55;7.35;;;;;;;16.02;100.00;97842.78;1700116;75;761219;-67
2023/06/01 05:31:51;;;;;;;12.15;6.95;;;;;;;16.08;100.00;97847.03;1709677;75;672394;-70
2023/06/01 05:34:22;;;;;;;11.10;8.40;;;;;;;16.05;100.00;97834.25;1701131;75;745008;-71
2023/06/01 05:36:52;;;;;;;10.90;8.40;;;;;;;16.16;100.00;97836.97;1710213;75;683725;-70
2023/06/01 05:39:27;;;;;;;13.50;7.75;;;;;;;16.24;100.00;97845.44;1700908;75;740893;-70
2023/06/01 05:41:57;;;;;;;13.80;7.50;;;;;;;16.17;100.00;97838.44;1709769;75;723833;-68
2023/06/01 05:44:27;;;;;;;11.95;7.65;;;;;;;16.26;100.00;97844.94;1701402;75;744293;-72
2023/06/01 05:47:00;;;;;;;7.70;6.30;;;;;;;16.49;100.00;97842.81;1709281;75;676323;-69
2023/06/01 05:49:31;;;;;;;12.25;7.35;;;;;;;16.55;100.00;97849.06;1701198;75;748971;-71
2023/06/01 05:52:02;;;;;;;8.20;6.00;;;;;;;16.64;100.00;97845.97;1710535;75;675531;-69
2023/06/01 05:54:32;;;;;;;8.40;6.00;;;;;;;16.70;100.00;97843.94;1686664;75;1889953;-67
2023/06/01 05:57:02;;;;;;;8.55;6.00;;;;;;;16.74;100.00;97854.69;1710484;75;682455;-72
2023/06/01 05:59:34;;;;;;;11.10;7.20;;;;;;;16.64;100.00;97850.75;1702298;75;745659;-68
2023/06/01 06:02:08;;;;;;;11.20;6.85;;;;;;;16.76;100.00;97850.19;1709154;75;883080;-68
2023/06/01 06:04:38;;;;;;;10.70;7.30;;;;;;;16.85;99.47;97843.59;1702601;75;739125;-70
2023/06/01 06:07:09;;;;;;;11.30;6.50;;;;;;;17.07;98.20;97850.22;1682249;75;2952044;-68
2023/06/01 06:09:39;;;;;;;8.60;6.50;;;;;;;17.15;94.60;97840.84;1700112;75;745979;-73
2023/06/01 06:12:11;;;;;;;9.75;7.15;;;;;;;17.26;94.88;97848.28;1709700;75;691290;-70
2023/06/01 06:14:41;;;;;;;12.85;8.05;;;;;;;17.31;93.46;97847.50;1701076;75;753717;-70
2023/06/01 06:17:14;;;;;;;10.95;6.60;;;;;;;17.45;93.88;97846.34;1710023;75;670231;-68
2023/06/01 06:19:45;;;;;;;9.15;5.80;;;;;;;17.72;92.70;97854.16;1700698;75;760883;-70
2023/06/01 06:22:15;;;;;;;10.70;6.40;;;;;;;17.76;89.53;97860.16;1710087;75;687750;-69
2023/06/01 06:24:47;;;;;;;8.25;5.90;;;;;;;18.02;90.66;97848.56;1700382;75;753676;-71
2023/06/01 06:27:17;;;;;;;6.70;5.70;;;;;;;17.91;87.51;97848.69;1707345;75;922717;-70
2023/06/01 06:29:48;;;;;;;6.70;5.05;;;;;;;18.36;85.67;97851.66;1701766;75;721936;-69
2023/06/01 06:32:21;;;;;;;8.00;6.10;;;;;;;18.36;85.41;97851.66;1709215;75;675377;-70
2023/06/01 06:34:52;;;;;;;7.30;6.20;;;;;;;18.52;82.25;97856.22;1698918;75;868239;-68
2023/06/01 06:37:22;;;;;;;9.00;6.10;;;;;;;18.74;80.90;97854.41;1709450;75;681690;-71
2023/06/01 06:39:52;;;;;;;6.80;5.70;;;;;;;18.91;82.14;97841.06;1700734;75;753782;-71
2023/06/01 06:42:22;;;;;;;10.00;6.05;;;;;;;18.86;81.15;97852.25;1706476;75;981780;-71
2023/06/01 06:44:53;;;;;;;9.45;5.75;;;;;;;18.91;81.68;97843.09;1701296;75;740468;-71
2023/06/01 06:47:25;;;;;;;5.85;4.80;;;;;;;19.30;80.34;97847.25;1708231;75;795703;-70
2023/06/01 06:49:56;;;;;;;4.15;3.75;;;;;;;19.68;81.40;97844.34;1701845;75;756783;-71
2023/06/01 06:52:27;;;;;;;9.65;5.25;;;;;;;19.64;76.46;97841.84;1710536;75;674781;-70
2023/06/01 06:54:57;;;;;;;9.90;6.05;;;;;;;19.74;75.61;97836.63;1700982;75;734670;-70
2023/06/01 06:57:27;;;;;;;7.65;5.70;;;;;;;19.87;74.53;97836.63;1709501;75;678797;-68
2023/06/01 06:59:58;;;;;;;6.60;4.70;;;;;;;20.14;74.56;97837.34;1701785;75;744100;-69
2023/06/01 07:02:31;;;;;;;7.25;5.15;;;;;;;20.00;72.49;97841.44;1710257;75;672699;-72
2023/06/01 07:05:01;;;;;;;9.10;5.30;;;;;;;20.12;70.94;97837.13;1699422;75;856526;-70
2023/06/01 07:07:31;;;;;;;8.05;5.00;;;;;;;20.26;69.74;97839.91;1709314;75;680351;-70
2023/06/01 07:10:01;;;;;;;10.15;4.50;;;;;;;20.39;66.70;97837.81;1701205;75;754231;-72
2023/06/01 07:12:31;;;;;;;6.70;5.20;;;;;;;20.77;66.48;97834.75;1710262;75;673053;-71
2023/06/01 07:15:01;;;;;;;5.90;4.60;;;;;;;20.96;65.01;97854.03;1700294;75;756459;-69
2023/06/01 07:17:35;;;;;;;5.80;4.15;;;;;;;21.30;62.57;97847.63;1708641;75;695656;-68
2023/06/01 07:20:10;;;;;;;10.00;4.40;;;;;;;21.16;54.05;97841.41;1701256;75;751812;-71
2023/06/01 07:22:42;;;;;;;6.70;4.40;;;;;;;21.36;57.48;97842.69;1706165;75;756792;-70
2023/06/01 07:25:13;;;;;;;6.70;4.20;;;;;;;21.05;59.17;97850.78;1709872;75;675726;-72
2023/06/01 07:27:44;;;;;;;5.10;4.05;;;;;;;21.24;55.32;97847.78;1701930;75;676516;-71
2023/06/01 07:30:15;;;;;;;8.00;3.90;;;;;;;21.31;56.00;97846.38;1710022;75;689469;-70
2023/06/01 07:32:48;;;;;;;5.45;3.55;;;;;;;21.48;57.39;97849.50;1701809;75;675119;-70
2023/06/01 07:35:18;;;;;;;3.75;3.15;;;;;;;21.66;56.81;97841.44;1710331;75;674075;-72
2023/06/01 07:37:49;;;;;;;6.50;4.00;;;;;;;21.56;56.20;97843.22;1701820;75;676866;-71
2023/06/01 07:40:19;;;;;;;5.70;3.80;;;;;;;21.64;56.70;97841.22;1710398;75;675964;-73
2023/06/01 07:42:49;;;;;;;6.60;3.55;;;;;;;21.72;57.03;97844.06;1702451;75;678532;-69
2023/06/01 07:45:20;;;;;;;6.00;3.65;;;;;;;21.62;56.53;97844.56;1710128;75;674728;-70
2023/06/01 07:47:53;;;;;;;9.80;3.80;;;;;;;21.55;56.13;97848.06;1701003;75;704552;-70
2023/06/01 07:50:28;;;;;;;8.10;4.25;;;;;;;21.71;56.63;97846.09;1709274;75;673973;-69
2023/06/01 07:52:58;;;;;;;11.90;5.30;;;;;;;22.08;57.03;97849.63;1701064;75;671337;-72
2023/06/01 07:55:28;;;;;;;6.40;3.90;;;;;;;21.96;55.87;97843.66;1708358;75;671219;-70
2023/06/01 07:57:58;;;;;;;7.75;4.80;;;;;;;22.02;53.97;97840.69;1701730;75;678341;-69
2023/06/01 08:00:29;;;;;;;5.50;3.80;;;;;;;22.37;54.07;97842.00;1709633;75;676820;-68
2023/06/01 08:03:06;;;;;;;10.50;4.30;;;;;;;22.25;51.70;97838.06;1701859;75;678992;-75
2023/06/01 08:05:38;;;;;;;4.60;3.60;;;;;;;22.37;52.59;97841.25;1695862;75;1807384;-68
2023/06/01 08:08:09;;;;;;;7.70;4.40;;;;;;;22.45;51.51;97836.44;1699540;75;765088;-72
2023/06/01 08:10:39;;;;;;;3.60;2.90;;;;;;;22.68;51.26;97833.69;1709771;75;679951;-73
2023/06/01 08:13:09;;;;;;;4.35;3.30;;;;;;;22.82;51.86;97837.09;1701065;75;747726;-68
2023/06/01 08:15:39;;;;;;;5.25;3.50;;;;;;;23.00;49.56;97832.50;1709960;75;678879;-72
2023/06/01 08:18:12;;;;;;;6.55;3.75;;;;;;;23.01;49.38;97828.38;1699245;75;745620;-71
2023/06/01 08:20:44;;;;;;;3.90;2.80;;;;;;;23.31;50.14;97834.00;1710169;75;679454;-69
2023/06/01 08:23:16;;;;;;;4.75;3.25;;;;;;;23.29;52.17;97838.66;1700256;75;744564;-70
2023/06/01 08:25:46;;;;;;;5.70;4.00;;;;;;;23.37;51.38;97831.00;1707316;75;868273;-70
2023/06/01 08:28:16;;;;;;;6.15;3.65;;;;;;;23.38;50.55;97833.25;1700355;75;752565;-70
2023/06/01 08:30:47;;;;;;;6.65;3.70;;;;;;;23.31;49.74;97827.66;1709685;75;681232;-71
2023/06/01 08:33:19;;;;;;;5.70;3.55;;;;;;;23.72;50.52;97829.28;1700895;75;752583;-75
2023/06/01 08:35:49;;;;;;;4.40;3.70;;;;;;;23.55;49.64;97823.53;1709502;75;674018;-70
2023/06/01 08:38:20;;;;;;;7.85;4.25;;;;;;;23.44;49.04;97821.13;1700637;75;745194;-71
2023/06/01 08:40:51;;;;;;;5.40;4.15;;;;;;;23.69;49.83;97822.03;1709555;75;685181;-71
2023/06/01 08:43:25;;;;;;;7.10;3.90;;;;;;;23.58;49.17;97820.34;1685581;75;1935396;-71
2023/06/01 08:45:56;;;;;;;5.80;3.50;;;;;;;23.56;49.17;97820.16;1710012;75;674268;-70
2023/06/01 08:48:29;;;;;;;7.50;3.50;;;;;;;23.76;48.50;97823.31;1700914;75;752917;-71
2023/06/01 08:51:02;;;;;;;6.30;3.30;;;;;;;23.87;48.71;97813.81;1709842;75;674450;-70
2023/06/01 08:53:34;;;;;;;6.90;3.45;;;;;;;24.00;49.79;97811.53;1700668;75;749801;-72
2023/06/01 08:56:05;;;;;;;6.70;3.80;;;;;;;23.65;49.47;97821.66;1708913;75;676885;-68
2023/06/01 08:58:36;;;;;;;4.95;3.30;;;;;;;23.90;50.00;97812.66;1699419;75;748149;-72
2023/06/01 09:01:06;;;;;;;5.00;3.75;;;;;;;24.00;49.20;97810.75;1709997;75;676809;-70
2023/06/01 09:03:39;;;;;;;6.25;3.95;;;;;;;24.07;49.30;97804.41;1701498;75;744952;-71
2023/06/01 09:06:09;;;;;;;6.00;3.80;;;;;;;24.00;49.10;97816.34;1709933;75;679807;-72
2023/06/01 09:08:40;;;;;;;4.20;3.10;;;;;;;24.55;49.18;97807.19;1700615;75;760704;-70
2023/06/01 09:11:10;;;;;;;4.45;2.65;;;;;;;24.76;48.34;97806.13;1709527;75;707458;-71
2023/06/01 09:13:42;;;;;;;7.20;3.70;;;;;;;24.73;48.18;97802.41;1700335;75;739387;-69
2023/06/01 09:16:12;;;;;;;6.00;4.10;;;;;;;24.59;47.37;97801.94;1710018;75;679420;-73
2023/06/01 09:18:57;;;;;;;5.50;3.55;;;;;;;24.97;48.40;97800.19;1700171;75;750429;-73
2023/06/01 09:21:28;;;;;;;7.80;3.60;;;;;;;24.58;48.58;97794.09;1701071;75;675198;-69
2023/06/01 09:23:58;;;;;;;6.40;4.40;;;;;;;24.51;48.09;97797.69;1709143;75;674512;-72
2023/06/01 09:26:30;;;;;;;5.60;3.90;;;;;;;24.38;48.62;97798.66;1699369;75;842594;-70
2023/06/01 09:29:03;;;;;;;6.90;4.10;;;;;;;24.45;48.61;97792.28;1709314;75;676478;-68
2023/06/01 09:31:42;;;;;;;4.80;3.50;;;;;;;24.42;49.26;97791.38;1689303;75;1732737;-69
2023/06/01 09:34:18;;;;;;;6.10;3.90;;;;;;;24.20;49.60;97792.25;1710204;75;675494;-71
2023/06/01 09:36:49;;;;;;;5.80;3.95;;;;;;;24.28;50.71;97797.78;1700924;75;752390;-69
2023/06/01 09:39:23;;;;;;;3.90;3.20;;;;;;;24.71;49.97;97793.84;1709813;75;673504;-70
2023/06/01 09:41:56;;;;;;;7.45;3.70;;;;;;;24.74;48.82;97787.09;1701482;75;759243;-70
2023/06/01 09:44:29;;;;;;;6.65;3.85;;;;;;;24.78;49.23;97790.25;1710655;75;679425;-71
2023/06/01 09:47:01;;;;;;;8.15;4.05;;;;;;;25.01;48.85;97783.72;1701384;75;731783;-71
2023/06/01 09:49:38;;;;;;;6.40;3.90;;;;;;;25.13;48.20;97795.19;1709506;75;679345;-72
2023/06/01 09:52:19;;;;;;;5.10;3.10;;;;;;;25.62;47.08;97779.66;1700723;75;735748;-71
2023/06/01 09:54:54;;;;;;;5.10;3.50;;;;;;;25.47;46.74;97772.13;1702031;75;680610;-73
2023/06/01 09:57:29;;;;;;;4.40;3.50;;;;;;;25.46;48.79;97773.44;1709164;75;686654;-71
2023/06/01 09:59:59;;;;;;;3.90;3.40;;;;;;;25.92;48.27;97770.16;1701784;75;676060;-74
2023/06/01 10:02:31;;;;;;;6.80;4.20;;;;;;;25.89;46.69;97774.88;1709388;75;674025;-70
2023/06/01 10:05:05;;;;;;;4.60;3.20;;;;;;;25.89;46.60;97768.53;1701364;75;674245;-71
2023/06/01 10:07:38;;;;;;;3.95;3.20;;;;;;;26.34;46.51;97764.38;1709100;75;678549;-68
2023/06/01 10:10:10;;;;;;;6.80;3.60;;;;;;;26.27;46.82;97765.22;1700125;75;730990;-73
2023/06/01 10:12:40;;;;;;;4.50;3.30;;;;;;;26.37;45.33;97764.56;1709850;75;669893;-72
2023/06/01 10:15:15;;;;;;;4.20;3.25;;;;;;;26.29;46.63;97759.03;1700580;75;760418;-71
2023/06/01 10:17:46;;;;;;;8.20;3.90;;;;;;;26.07;46.30;97758.78;1709835;75;677516;-69
2023/06/01 10:20:19;;;;;;;5.90;3.80;;;;;;;26.12;47.06;97757.00;1701551;75;748595;-72
2023/06/01 10:22:50;;;;;;;5.55;3.70;;;;;;;25.63;47.15;97756.63;1710052;75;679601;-69
2023/06/01 10:25:25;;;;;;;5.65;3.60;;;;;;;25.47;46.32;97750.47;1700994;75;749926;-72
2023/06/01 10:28:03;;;;;;;4.90;3.90;;;;;;;25.57;46.62;97750.53;1705454;75;681510;-69
2023/06/01 10:30:33;;;;;;;7.10;4.30;;;;;;;25.76;46.88;97749.19;1710271;75;679514;-72
2023/06/01 10:33:04;;;;;;;4.70;4.00;;;;;;;26.03;45.36;97738.06;1702212;75;679836;-69
2023/06/01 10:36:00;;;;;;;7.30;4.75;;;;;;;25.64;46.60;97741.31;1709945;75;684262;-71
2023/06/01 10:38:31;;;;;;;7.65;4.05;;;;;;;25.42;45.84;97742.28;1700491;75;775613;-71
2023/06/01 10:41:31;;;;;;;5.25;3.45;;;;;;;25.49;45.60;97739.38;1710635;75;672154;-71
2023/06/01 10:44:02;;;;;;;6.40;4.05;;;;;;;24.77;46.78;97741.16;1701046;75;757523;-69
2023/06/01 10:46:45;;;;;;;5.30;4.00;;;;;;;24.98;46.12;97734.47;1709962;75;687300;-69
2023/06/01 10:49:15;;;;;;;5.45;3.30;;;;;;;25.29;47.16;97735.69;1701237;75;748988;-69
2023/06/01 10:51:48;;;;;;;5.45;3.70;;;;;;;25.50;46.78;97738.09;1709659;75;680970;-69
2023/06/01 10:54:42;;;;;;;8.20;4.00;;;;;;;25.40;45.97;97731.66;1701724;75;734660;-73
2023/06/01 10:57:29;;;;;;;7.35;3.65;;;;;;;25.14;45.16;97724.59;1701715;75;695641;-67
2023/06/01 11:00:21;;;;;;;7.80;4.20;;;;;;;25.17;46.07;97723.47;1702294;75;683832;-70
2023/06/01 11:02:59;;;;;;;6.45;3.80;;;;;;;25.38;44.90;97725.88;1711623;75;675736;-69
2023/06/01 11:05:54;;;;;;;;;;;;;;;25.23;45.05;97723.22;1703233;75;753382;-71
2023/06/01 11:08:58;;;;;;;6.80;4.00;;;;;;;25.38;45.23;97719.53;1703091;75;679163;-71
2023/06/01 11:12:03;;;;;;;6.20;3.60;;;;;;;25.23;44.35;97712.78;1703366;75;700785;-72
2023/06/01 11:14:35;;;;;;;4.95;3.65;;;;;;;25.53;45.21;97705.34;1702522;75;742280;-73
2023/06/01 11:17:32;;;;;;;4.95;3.55;;;;;;;25.50;45.19;97703.72;1710890;75;678880;-70
2023/06/01 11:20:11;;;;;;;5.70;3.60;;;;;;;25.75;44.36;97697.25;1701947;75;741835;-71
2023/06/01 11:22:41;;;;;;;;;;;;;;;25.82;45.20;97711.16;1701983;75;684485;-69
2023/06/01 11:25:20;;;;;;;4.70;3.60;;;;;;;26.05;42.60;97696.13;1709607;75;679749;-69
2023/06/01 11:27:50;;;;;;;5.20;3.30;;;;;;;26.53;42.80;97690.00;1701459;75;683972;-74
2023/06/01 11:30:23;;;;;;;10.70;3.90;;;;;;;26.30;42.81;97693.16;1710271;75;680695;-69
2023/06/01 11:32:58;;;;;;;5.60;3.60;;;;;;;26.48;43.33;97691.78;1702630;75;680063;-72
2023/06/01 11:35:28;;;;;;;8.30;3.60;;;;;;;26.02;43.88;97692.41;1709649;75;689691;-70
2023/06/01 11:37:59;;;;;;;7.80;3.90;;;;;;;25.72;44.74;97685.13;1701540;75;678729;-72
2023/06/01 11:40:32;;;;;;;4.70;3.60;;;;;;;25.63;44.59;97685.78;1707255;75;935681;-68
2023/06/01 11:43:02;;;;;;;9.90;3.90;;;;;;;25.78;44.87;97682.06;1702376;75;676212;-69
2023/06/01 11:45:33;;;;;;;5.60;3.90;;;;;;;26.22;45.36;97678.50;1708653;75;680257;-68
2023/06/01 11:48:14;;;;;;;5.80;4.05;;;;;;;26.65;45.38;97670.56;1700419;75;746673;-69